Agate Beach, Oregon
Current Conditions -  °F | °C
As of 2:35 AM on Wednesday 22 Oct 2014 (Local Time) from KONP Reporting Station
Moderate Rain Moderate Rain  
Wind Chill: 14°   Ceiling: 1200
Heat Index: 14°   Visibility: 5mi
Dew Point: 13°   Wind: 24mph
Humidity: 94%   Direction: 180°S
Pressure: 29.82"   Gusts: 36mph
Location:  44.6805°N, 124.021°W
Report Text: KONP 220935Z AUTO 18021G31KT 5SM RA SCT006 BKN012 OVC029 14/13 A2982 RMK AO2
Loading
Personal Weather Stations






























Interactive Weather Map
Tropical Storm Tracking
New forecast layout! Learn more

10-Day Weather Forecast

Advertisements
Track Severe Weather on mobile